sensor_id;sensor_type;location;lat;lon;timestamp;pressure;altitude;pressure_sealevel;temperature;humidity
73383;BME280;61600;48.126;11.542;2023-05-22T00:00:04;95177.25;;;20.25;54.64
73383;BME280;61600;48.126;11.542;2023-05-22T00:02:34;95178.97;;;20.30;54.65
73383;BME280;61600;48.126;11.542;2023-05-22T00:05:08;95173.59;;;20.21;54.81
73383;BME280;61600;48.126;11.542;2023-05-22T00:07:35;95178.41;;;20.24;54.96
73383;BME280;61600;48.126;11.542;2023-05-22T00:10:01;95175.94;;;20.19;55.05
73383;BME280;61600;48.126;11.542;2023-05-22T00:12:27;95184.22;;;20.19;55.21
73383;BME280;61600;48.126;11.542;2023-05-22T00:14:53;95181.72;;;20.14;55.52
73383;BME280;61600;48.126;11.542;2023-05-22T00:17:18;95181.00;;;20.17;55.03
73383;BME280;61600;48.126;11.542;2023-05-22T00:19:44;95181.34;;;20.00;55.11
73383;BME280;61600;48.126;11.542;2023-05-22T00:22:10;95185.88;;;19.61;56.84
73383;BME280;61600;48.126;11.542;2023-05-22T00:24:36;95184.81;;;19.66;56.69
73383;BME280;61600;48.126;11.542;2023-05-22T00:27:03;95181.09;;;19.89;56.31
73383;BME280;61600;48.126;11.542;2023-05-22T00:29:29;95180.28;;;19.89;56.16
73383;BME280;61600;48.126;11.542;2023-05-22T00:31:55;95180.38;;;19.77;56.22
73383;BME280;61600;48.126;11.542;2023-05-22T00:34:21;95179.72;;;19.68;56.21
73383;BME280;61600;48.126;11.542;2023-05-22T00:36:46;95175.09;;;19.72;56.64
73383;BME280;61600;48.126;11.542;2023-05-22T00:39:12;95177.78;;;19.68;56.90
73383;BME280;61600;48.126;11.542;2023-05-22T00:41:38;95178.13;;;19.67;56.85
73383;BME280;61600;48.126;11.542;2023-05-22T00:44:04;95179.72;;;19.68;56.53
73383;BME280;61600;48.126;11.542;2023-05-22T00:46:31;95173.44;;;19.83;56.57
73383;BME280;61600;48.126;11.542;2023-05-22T00:48:57;95175.28;;;19.79;56.58
73383;BME280;61600;48.126;11.542;2023-05-22T00:51:23;95176.44;;;19.78;56.23
73383;BME280;61600;48.126;11.542;2023-05-22T00:53:49;95176.91;;;19.80;56.41
73383;BME280;61600;48.126;11.542;2023-05-22T00:56:17;95175.28;;;19.79;56.26
73383;BME280;61600;48.126;11.542;2023-05-22T00:58:43;95170.22;;;19.81;56.03
73383;BME280;61600;48.126;11.542;2023-05-22T01:01:09;95179.63;;;19.49;55.82
73383;BME280;61600;48.126;11.542;2023-05-22T01:03:37;95174.38;;;19.59;55.25
73383;BME280;61600;48.126;11.542;2023-05-22T01:06:15;95175.16;;;19.44;56.80
73383;BME280;61600;48.126;11.542;2023-05-22T01:08:43;95181.56;;;19.20;57.25
73383;BME280;61600;48.126;11.542;2023-05-22T01:11:14;95180.69;;;19.04;57.41
73383;BME280;61600;48.126;11.542;2023-05-22T01:14:00;95177.03;;;19.00;57.90
73383;BME280;61600;48.126;11.542;2023-05-22T01:16:39;95186.25;;;18.92;57.39
73383;BME280;61600;48.126;11.542;2023-05-22T01:33:02;95196.69;;;18.99;57.25
73383;BME280;61600;48.126;11.542;2023-05-22T01:35:29;95199.75;;;19.09;56.48
73383;BME280;61600;48.126;11.542;2023-05-22T01:37:56;95206.00;;;18.94;55.93
73383;BME280;61600;48.126;11.542;2023-05-22T01:40:24;95202.28;;;18.62;55.90
73383;BME280;61600;48.126;11.542;2023-05-22T01:42:50;95203.53;;;18.65;57.40
73383;BME280;61600;48.126;11.542;2023-05-22T01:45:16;95201.47;;;18.62;56.58
73383;BME280;61600;48.126;11.542;2023-05-22T01:47:42;95208.66;;;18.90;55.88
73383;BME280;61600;48.126;11.542;2023-05-22T01:50:08;95202.47;;;18.81;55.67
73383;BME280;61600;48.126;11.542;2023-05-22T01:58:44;95203.50;;;18.77;55.24
73383;BME280;61600;48.126;11.542;2023-05-22T02:01:16;95201.06;;;18.87;55.21
73383;BME280;61600;48.126;11.542;2023-05-22T02:03:44;95196.88;;;18.66;55.33
73383;BME280;61600;48.126;11.542;2023-05-22T02:06:12;95208.59;;;18.75;55.72
73383;BME280;61600;48.126;11.542;2023-05-22T02:08:40;95208.81;;;18.82;55.51
73383;BME280;61600;48.126;11.542;2023-05-22T02:11:07;95214.00;;;18.59;55.79
73383;BME280;61600;48.126;11.542;2023-05-22T02:13:34;95215.81;;;18.55;55.81
73383;BME280;61600;48.126;11.542;2023-05-22T02:16:01;95214.56;;;18.53;55.72
73383;BME280;61600;48.126;11.542;2023-05-22T02:18:28;95222.03;;;18.52;56.17
73383;BME280;61600;48.126;11.542;2023-05-22T02:20:56;95216.88;;;18.51;56.10
73383;BME280;61600;48.126;11.542;2023-05-22T02:23:23;95218.00;;;18.50;55.91
73383;BME280;61600;48.126;11.542;2023-05-22T02:25:49;95218.31;;;18.48;56.03
73383;BME280;61600;48.126;11.542;2023-05-22T02:28:14;95217.06;;;18.45;56.18
73383;BME280;61600;48.126;11.542;2023-05-22T02:30:40;95218.22;;;18.44;56.27
73383;BME280;61600;48.126;11.542;2023-05-22T02:33:06;95215.47;;;18.44;56.85
73383;BME280;61600;48.126;11.542;2023-05-22T02:35:34;95211.91;;;18.44;56.35
73383;BME280;61600;48.126;11.542;2023-05-22T02:38:00;95211.25;;;18.47;56.26
73383;BME280;61600;48.126;11.542;2023-05-22T02:40:28;95213.19;;;18.46;55.83
73383;BME280;61600;48.126;11.542;2023-05-22T02:42:54;95208.00;;;18.45;55.47
73383;BME280;61600;48.126;11.542;2023-05-22T02:45:19;95214.31;;;18.45;55.49
73383;BME280;61600;48.126;11.542;2023-05-22T02:47:45;95204.81;;;18.43;55.47
73383;BME280;61600;48.126;11.542;2023-05-22T02:50:11;95210.88;;;18.48;55.42
73383;BME280;61600;48.126;11.542;2023-05-22T02:52:37;95207.19;;;18.44;54.97
73383;BME280;61600;48.126;11.542;2023-05-22T02:55:04;95202.63;;;18.36;55.14
73383;BME280;61600;48.126;11.542;2023-05-22T02:57:30;95204.47;;;18.32;55.09
73383;BME280;61600;48.126;11.542;2023-05-22T02:59:56;95205.03;;;18.50;54.02
73383;BME280;61600;48.126;11.542;2023-05-22T03:02:24;95207.69;;;18.46;53.70
73383;BME280;61600;48.126;11.542;2023-05-22T03:04:50;95208.81;;;18.45;53.71
73383;BME280;61600;48.126;11.542;2023-05-22T03:07:21;95207.91;;;18.29;53.88
73383;BME280;61600;48.126;11.542;2023-05-22T03:09:51;95210.63;;;17.93;55.35
73383;BME280;61600;48.126;11.542;2023-05-22T03:12:17;95210.53;;;18.14;54.68
73383;BME280;61600;48.126;11.542;2023-05-22T03:14:43;95206.53;;;18.23;53.97
73383;BME280;61600;48.126;11.542;2023-05-22T03:17:09;95206.63;;;18.27;53.96
73383;BME280;61600;48.126;11.542;2023-05-22T03:19:35;95210.88;;;18.24;54.05
73383;BME280;61600;48.126;11.542;2023-05-22T03:22:03;95211.91;;;18.20;54.02
73383;BME280;61600;48.126;11.542;2023-05-22T03:24:29;95222.81;;;18.28;54.31
73383;BME280;61600;48.126;11.542;2023-05-22T03:26:58;95213.41;;;18.41;53.75
73383;BME280;61600;48.126;11.542;2023-05-22T03:29:24;95216.75;;;18.35;53.55
73383;BME280;61600;48.126;11.542;2023-05-22T03:31:52;95230.63;;;18.38;54.27
73383;BME280;61600;48.126;11.542;2023-05-22T03:34:18;95229.22;;;18.44;53.86
73383;BME280;61600;48.126;11.542;2023-05-22T03:36:44;95232.34;;;18.43;53.50
73383;BME280;61600;48.126;11.542;2023-05-22T03:39:12;95228.53;;;18.47;54.02
73383;BME280;61600;48.126;11.542;2023-05-22T03:41:41;95229.16;;;18.53;53.65
73383;BME280;61600;48.126;11.542;2023-05-22T03:44:07;95229.28;;;18.57;53.37
73383;BME280;61600;48.126;11.542;2023-05-22T03:46:33;95229.34;;;18.48;53.93
73383;BME280;61600;48.126;11.542;2023-05-22T03:48:59;95233.41;;;18.51;54.04
73383;BME280;61600;48.126;11.542;2023-05-22T03:51:24;95232.56;;;18.50;53.52
73383;BME280;61600;48.126;11.542;2023-05-22T03:53:50;95238.16;;;18.05;55.32
73383;BME280;61600;48.126;11.542;2023-05-22T03:56:16;95239.53;;;17.99;54.86
73383;BME280;61600;48.126;11.542;2023-05-22T03:58:42;95242.28;;;17.99;55.85
73383;BME280;61600;48.126;11.542;2023-05-22T04:01:08;95242.75;;;17.89;55.21
73383;BME280;61600;48.126;11.542;2023-05-22T04:03:37;95243.13;;;18.12;55.30
73383;BME280;61600;48.126;11.542;2023-05-22T04:06:04;95237.16;;;18.22;55.13
73383;BME280;61600;48.126;11.542;2023-05-22T04:08:30;95240.13;;;18.17;53.62
73383;BME280;61600;48.126;11.542;2023-05-22T04:10:55;95240.03;;;18.25;54.32
73383;BME280;61600;48.126;11.542;2023-05-22T04:13:21;95237.84;;;18.31;54.79
73383;BME280;61600;48.126;11.542;2023-05-22T04:15:47;95242.31;;;18.47;54.07
73383;BME280;61600;48.126;11.542;2023-05-22T04:18:14;95245.19;;;18.15;54.67
73383;BME280;61600;48.126;11.542;2023-05-22T04:20:40;95239.00;;;18.18;55.75
73383;BME280;61600;48.126;11.542;2023-05-22T04:23:07;95237.97;;;18.34;55.13
73383;BME280;61600;48.126;11.542;2023-05-22T04:25:32;95235.00;;;18.52;54.78
73383;BME280;61600;48.126;11.542;2023-05-22T04:27:59;95235.22;;;18.59;54.27
73383;BME280;61600;48.126;11.542;2023-05-22T04:30:27;95241.44;;;18.68;54.02
73383;BME280;61600;48.126;11.542;2023-05-22T04:32:54;95243.50;;;18.71;54.24
73383;BME280;61600;48.126;11.542;2023-05-22T04:35:20;95233.38;;;18.75;53.56
73383;BME280;61600;48.126;11.542;2023-05-22T04:37:46;95241.31;;;18.52;53.91
73383;BME280;61600;48.126;11.542;2023-05-22T04:40:12;95243.00;;;18.69;54.07
73383;BME280;61600;48.126;11.542;2023-05-22T04:42:40;95244.06;;;18.64;52.59
73383;BME280;61600;48.126;11.542;2023-05-22T04:45:07;95248.41;;;18.65;54.14
73383;BME280;61600;48.126;11.542;2023-05-22T04:47:34;95246.56;;;18.69;53.06
73383;BME280;61600;48.126;11.542;2023-05-22T04:50:02;95248.78;;;18.52;53.54
73383;BME280;61600;48.126;11.542;2023-05-22T04:52:28;95252.00;;;18.54;54.94
73383;BME280;61600;48.126;11.542;2023-05-22T04:54:54;95253.31;;;18.47;55.54
73383;BME280;61600;48.126;11.542;2023-05-22T04:57:20;95254.19;;;18.60;53.52
73383;BME280;61600;48.126;11.542;2023-05-22T04:59:47;95262.06;;;18.62;54.33
73383;BME280;61600;48.126;11.542;2023-05-22T05:02:20;95258.63;;;18.77;53.65
73383;BME280;61600;48.126;11.542;2023-05-22T05:04:46;95262.53;;;18.88;53.34
73383;BME280;61600;48.126;11.542;2023-05-22T05:07:12;95258.25;;;18.90;53.25
73383;BME280;61600;48.126;11.542;2023-05-22T05:09:42;95257.53;;;19.06;52.76
73383;BME280;61600;48.126;11.542;2023-05-22T05:12:07;95251.44;;;19.12;53.02
73383;BME280;61600;48.126;11.542;2023-05-22T05:14:33;95255.72;;;18.98;52.70
73383;BME280;61600;48.126;11.542;2023-05-22T05:16:59;95251.25;;;18.93;53.62
73383;BME280;61600;48.126;11.542;2023-05-22T05:19:25;95262.75;;;18.95;53.48
73383;BME280;61600;48.126;11.542;2023-05-22T05:21:50;95256.31;;;18.91;53.49
73383;BME280;61600;48.126;11.542;2023-05-22T05:24:16;95250.78;;;19.03;53.60
73383;BME280;61600;48.126;11.542;2023-05-22T05:26:43;95254.69;;;19.02;53.79
73383;BME280;61600;48.126;11.542;2023-05-22T05:29:09;95256.03;;;19.08;53.48
73383;BME280;61600;48.126;11.542;2023-05-22T05:31:35;95248.78;;;19.16;53.59
73383;BME280;61600;48.126;11.542;2023-05-22T05:34:01;95255.41;;;19.27;53.40
73383;BME280;61600;48.126;11.542;2023-05-22T05:36:27;95258.00;;;19.35;53.19
73383;BME280;61600;48.126;11.542;2023-05-22T05:38:53;95262.19;;;19.29;53.45
73383;BME280;61600;48.126;11.542;2023-05-22T05:41:21;95266.19;;;19.44;53.17
73383;BME280;61600;48.126;11.542;2023-05-22T05:43:47;95267.03;;;19.60;53.04
73383;BME280;61600;48.126;11.542;2023-05-22T05:46:13;95268.50;;;19.70;52.49
73383;BME280;61600;48.126;11.542;2023-05-22T05:48:39;95275.50;;;19.67;52.94
73383;BME280;61600;48.126;11.542;2023-05-22T05:51:05;95268.00;;;19.80;52.26
73383;BME280;61600;48.126;11.542;2023-05-22T05:53:31;95270.66;;;19.92;52.42
73383;BME280;61600;48.126;11.542;2023-05-22T05:55:58;95276.28;;;19.95;52.21
73383;BME280;61600;48.126;11.542;2023-05-22T05:58:26;95273.91;;;19.94;52.51
73383;BME280;61600;48.126;11.542;2023-05-22T06:00:52;95273.91;;;20.10;51.90
73383;BME280;61600;48.126;11.542;2023-05-22T06:03:18;95276.03;;;20.16;52.08
73383;BME280;61600;48.126;11.542;2023-05-22T06:05:43;95274.75;;;20.26;51.91
73383;BME280;61600;48.126;11.542;2023-05-22T06:08:11;95275.88;;;20.25;51.44
73383;BME280;61600;48.126;11.542;2023-05-22T06:10:38;95272.59;;;20.19;51.34
73383;BME280;61600;48.126;11.542;2023-05-22T06:13:04;95278.56;;;20.21;51.70
73383;BME280;61600;48.126;11.542;2023-05-22T06:15:30;95273.50;;;20.39;51.04
73383;BME280;61600;48.126;11.542;2023-05-22T06:17:56;95270.03;;;20.58;51.00
73383;BME280;61600;48.126;11.542;2023-05-22T06:20:22;95272.81;;;20.58;50.44
73383;BME280;61600;48.126;11.542;2023-05-22T06:22:52;95276.16;;;20.67;50.18
73383;BME280;61600;48.126;11.542;2023-05-22T06:25:18;95274.75;;;20.57;50.07
73383;BME280;61600;48.126;11.542;2023-05-22T06:27:45;95270.81;;;20.74;49.94
73383;BME280;61600;48.126;11.542;2023-05-22T06:30:11;95273.88;;;20.53;49.90
73383;BME280;61600;48.126;11.542;2023-05-22T06:32:37;95267.69;;;20.75;50.08
73383;BME280;61600;48.126;11.542;2023-05-22T06:35:02;95271.31;;;20.79;49.56
73383;BME280;61600;48.126;11.542;2023-05-22T06:37:28;95279.00;;;20.86;49.38
73383;BME280;61600;48.126;11.542;2023-05-22T06:39:55;95278.94;;;20.82;49.32
73383;BME280;61600;48.126;11.542;2023-05-22T06:42:21;95275.09;;;20.56;49.91
73383;BME280;61600;48.126;11.542;2023-05-22T06:44:47;95279.28;;;20.81;49.87
73383;BME280;61600;48.126;11.542;2023-05-22T06:47:13;95276.41;;;20.93;49.94
73383;BME280;61600;48.126;11.542;2023-05-22T06:49:39;95277.81;;;20.87;50.26
73383;BME280;61600;48.126;11.542;2023-05-22T06:52:05;95288.72;;;20.96;49.91
73383;BME280;61600;48.126;11.542;2023-05-22T06:54:31;95279.31;;;21.16;49.48
73383;BME280;61600;48.126;11.542;2023-05-22T06:56:57;95273.88;;;21.04;49.93
73383;BME280;61600;48.126;11.542;2023-05-22T06:59:24;95278.22;;;20.85;50.64
73383;BME280;61600;48.126;11.542;2023-05-22T07:01:53;95281.88;;;20.89;50.79
73383;BME280;61600;48.126;11.542;2023-05-22T07:04:19;95287.09;;;21.10;50.29
73383;BME280;61600;48.126;11.542;2023-05-22T07:06:46;95276.50;;;21.31;50.03
73383;BME280;61600;48.126;11.542;2023-05-22T07:09:21;95295.34;;;21.26;50.35
73383;BME280;61600;48.126;11.542;2023-05-22T07:11:50;95280.78;;;21.29;50.21
73383;BME280;61600;48.126;11.542;2023-05-22T07:14:16;95286.84;;;21.34;50.42
73383;BME280;61600;48.126;11.542;2023-05-22T07:16:42;95292.91;;;21.59;49.51
73383;BME280;61600;48.126;11.542;2023-05-22T07:19:08;95287.31;;;21.56;49.59
73383;BME280;61600;48.126;11.542;2023-05-22T07:21:36;95289.25;;;21.36;49.71
73383;BME280;61600;48.126;11.542;2023-05-22T07:24:02;95290.88;;;21.56;49.11
73383;BME280;61600;48.126;11.542;2023-05-22T07:26:36;95289.84;;;21.64;49.28
73383;BME280;61600;48.126;11.542;2023-05-22T07:29:03;95295.16;;;21.54;49.54
73383;BME280;61600;48.126;11.542;2023-05-22T07:31:29;95296.91;;;21.62;49.33
73383;BME280;61600;48.126;11.542;2023-05-22T07:33:56;95294.75;;;21.71;49.21
73383;BME280;61600;48.126;11.542;2023-05-22T07:36:22;95295.00;;;21.85;49.09
73383;BME280;61600;48.126;11.542;2023-05-22T07:38:48;95289.84;;;21.64;49.44
73383;BME280;61600;48.126;11.542;2023-05-22T07:41:13;95292.41;;;21.92;49.50
73383;BME280;61600;48.126;11.542;2023-05-22T07:43:39;95291.31;;;21.97;49.53
73383;BME280;61600;48.126;11.542;2023-05-22T07:46:05;95296.31;;;22.10;49.09
73383;BME280;61600;48.126;11.542;2023-05-22T07:48:31;95286.09;;;22.14;49.36
73383;BME280;61600;48.126;11.542;2023-05-22T07:50:57;95292.31;;;22.08;49.82
73383;BME280;61600;48.126;11.542;2023-05-22T07:53:22;95286.75;;;22.27;49.19
73383;BME280;61600;48.126;11.542;2023-05-22T07:55:48;95290.13;;;22.39;49.08
73383;BME280;61600;48.126;11.542;2023-05-22T07:58:15;95292.03;;;22.35;49.25
73383;BME280;61600;48.126;11.542;2023-05-22T08:00:41;95290.97;;;22.21;49.95
73383;BME280;61600;48.126;11.542;2023-05-22T08:03:07;95294.25;;;22.26;50.41
73383;BME280;61600;48.126;11.542;2023-05-22T08:05:32;95302.00;;;22.17;49.83
73383;BME280;61600;48.126;11.542;2023-05-22T08:07:58;95298.47;;;22.39;49.09
73383;BME280;61600;48.126;11.542;2023-05-22T08:10:24;95295.19;;;22.34;49.22
73383;BME280;61600;48.126;11.542;2023-05-22T08:12:50;95301.53;;;22.34;49.32
73383;BME280;61600;48.126;11.542;2023-05-22T08:15:16;95299.31;;;22.44;49.28
73383;BME280;61600;48.126;11.542;2023-05-22T08:17:42;95295.44;;;22.48;49.41
73383;BME280;61600;48.126;11.542;2023-05-22T08:20:08;95291.56;;;22.30;49.09
73383;BME280;61600;48.126;11.542;2023-05-22T08:22:37;95294.72;;;22.51;48.84
73383;BME280;61600;48.126;11.542;2023-05-22T08:25:03;95291.56;;;22.53;49.56
73383;BME280;61600;48.126;11.542;2023-05-22T08:27:29;95274.50;;;22.73;49.24
73383;BME280;61600;48.126;11.542;2023-05-22T08:29:55;95284.59;;;22.85;49.54
73383;BME280;61600;48.126;11.542;2023-05-22T08:32:21;95286.44;;;23.00;49.11
73383;BME280;61600;48.126;11.542;2023-05-22T08:34:47;95279.31;;;23.03;48.39
73383;BME280;61600;48.126;11.542;2023-05-22T08:37:13;95283.09;;;22.91;48.77
73383;BME280;61600;48.126;11.542;2023-05-22T08:39:39;95284.59;;;22.62;49.38
73383;BME280;61600;48.126;11.542;2023-05-22T08:42:05;95276.78;;;22.94;49.21
73383;BME280;61600;48.126;11.542;2023-05-22T08:44:31;95270.09;;;22.95;49.16
73383;BME280;61600;48.126;11.542;2023-05-22T08:46:59;95272.31;;;23.12;48.86
73383;BME280;61600;48.126;11.542;2023-05-22T08:49:29;95274.59;;;23.33;48.06
73383;BME280;61600;48.126;11.542;2023-05-22T08:51:55;95269.94;;;23.40;48.11
73383;BME280;61600;48.126;11.542;2023-05-22T08:54:25;95268.59;;;23.27;48.44
73383;BME280;61600;48.126;11.542;2023-05-22T08:56:53;95264.91;;;23.46;48.86
73383;BME280;61600;48.126;11.542;2023-05-22T08:59:19;95264.59;;;23.55;47.80
73383;BME280;61600;48.126;11.542;2023-05-22T09:01:45;95267.78;;;23.53;48.76
73383;BME280;61600;48.126;11.542;2023-05-22T09:04:12;95265.59;;;23.69;48.11
73383;BME280;61600;48.126;11.542;2023-05-22T09:06:38;95272.72;;;23.67;47.33
73383;BME280;61600;48.126;11.542;2023-05-22T09:09:04;95263.47;;;23.59;48.13
73383;BME280;61600;48.126;11.542;2023-05-22T09:11:30;95263.09;;;23.94;47.53
73383;BME280;61600;48.126;11.542;2023-05-22T09:14:09;95267.69;;;23.79;47.95
73383;BME280;61600;48.126;11.542;2023-05-22T09:16:53;95270.94;;;23.85;47.43
73383;BME280;61600;48.126;11.542;2023-05-22T09:19:19;95264.31;;;23.97;46.43
73383;BME280;61600;48.126;11.542;2023-05-22T09:21:45;95268.81;;;24.08;46.54
73383;BME280;61600;48.126;11.542;2023-05-22T09:24:12;95265.81;;;24.20;46.26
73383;BME280;61600;48.126;11.542;2023-05-22T09:26:38;95259.94;;;24.29;46.36
73383;BME280;61600;48.126;11.542;2023-05-22T09:29:05;95260.72;;;24.29;46.28
73383;BME280;61600;48.126;11.542;2023-05-22T09:31:39;95272.38;;;24.42;46.00
73383;BME280;61600;48.126;11.542;2023-05-22T09:34:06;95270.97;;;24.62;45.41
73383;BME280;61600;48.126;11.542;2023-05-22T09:36:34;95264.75;;;24.79;44.76
73383;BME280;61600;48.126;11.542;2023-05-22T09:39:01;95263.59;;;24.36;46.63
73383;BME280;61600;48.126;11.542;2023-05-22T09:41:27;95269.34;;;24.58;45.24
73383;BME280;61600;48.126;11.542;2023-05-22T09:43:55;95267.00;;;24.63;45.39
73383;BME280;61600;48.126;11.542;2023-05-22T09:46:21;95271.28;;;24.54;45.15
73383;BME280;61600;48.126;11.542;2023-05-22T09:48:53;95269.44;;;24.68;45.20
73383;BME280;61600;48.126;11.542;2023-05-22T09:51:22;95280.56;;;24.68;44.69
73383;BME280;61600;48.126;11.542;2023-05-22T09:53:56;95270.50;;;24.97;44.98
73383;BME280;61600;48.126;11.542;2023-05-22T09:56:27;95271.66;;;24.93;45.26
73383;BME280;61600;48.126;11.542;2023-05-22T09:58:54;95270.13;;;25.02;44.47
73383;BME280;61600;48.126;11.542;2023-05-22T10:01:21;95275.44;;;24.74;45.34
73383;BME280;61600;48.126;11.542;2023-05-22T10:03:48;95262.22;;;25.08;44.82
73383;BME280;61600;48.126;11.542;2023-05-22T10:06:17;95270.38;;;25.41;44.23
73383;BME280;61600;48.126;11.542;2023-05-22T10:08:49;95274.88;;;25.60;43.26
73383;BME280;61600;48.126;11.542;2023-05-22T10:11:19;95274.06;;;25.56;43.01
73383;BME280;61600;48.126;11.542;2023-05-22T10:13:46;95267.53;;;25.34;44.05
73383;BME280;61600;48.126;11.542;2023-05-22T10:16:14;95271.66;;;25.51;44.25
73383;BME280;61600;48.126;11.542;2023-05-22T10:18:44;95265.41;;;25.75;43.65
73383;BME280;61600;48.126;11.542;2023-05-22T10:21:10;95271.00;;;25.78;44.23
73383;BME280;61600;48.126;11.542;2023-05-22T10:23:37;95262.72;;;25.96;43.17
73383;BME280;61600;48.126;11.542;2023-05-22T10:26:04;95268.69;;;26.02;43.25
73383;BME280;61600;48.126;11.542;2023-05-22T10:28:39;95269.06;;;25.97;43.50
73383;BME280;61600;48.126;11.542;2023-05-22T10:31:23;95259.97;;;26.07;42.70
73383;BME280;61600;48.126;11.542;2023-05-22T10:33:58;95262.75;;;26.14;42.25
73383;BME280;61600;48.126;11.542;2023-05-22T10:41:56;95263.66;;;26.50;41.76
73383;BME280;61600;48.126;11.542;2023-05-22T10:44:22;95255.75;;;26.94;41.59
73383;BME280;61600;48.126;11.542;2023-05-22T10:46:48;95258.53;;;26.98;41.29
73383;BME280;61600;48.126;11.542;2023-05-22T10:49:22;95260.53;;;26.90;41.19
73383;BME280;61600;48.126;11.542;2023-05-22T10:51:54;95244.56;;;26.94;41.12
73383;BME280;61600;48.126;11.542;2023-05-22T10:54:37;95252.13;;;27.08;41.74
73383;BME280;61600;48.126;11.542;2023-05-22T10:57:16;95247.38;;;26.87;41.45
73383;BME280;61600;48.126;11.542;2023-05-22T10:59:43;95264.88;;;26.66;41.56
73383;BME280;61600;48.126;11.542;2023-05-22T11:02:19;95251.69;;;27.23;41.70
73383;BME280;61600;48.126;11.542;2023-05-22T11:04:46;95246.06;;;27.55;41.46
73383;BME280;61600;48.126;11.542;2023-05-22T11:07:12;95242.44;;;27.72;40.90
73383;BME280;61600;48.126;11.542;2023-05-22T11:09:43;95242.03;;;27.70;40.53
73383;BME280;61600;48.126;11.542;2023-05-22T11:14:56;95245.66;;;27.60;40.11
73383;BME280;61600;48.126;11.542;2023-05-22T11:17:27;95237.69;;;27.41;41.11
73383;BME280;61600;48.126;11.542;2023-05-22T11:22:40;95241.16;;;27.88;40.75
73383;BME280;61600;48.126;11.542;2023-05-22T11:25:17;95235.94;;;27.93;39.97
73383;BME280;61600;48.126;11.542;2023-05-22T11:27:44;95230.69;;;28.02;39.69
73383;BME280;61600;48.126;11.542;2023-05-22T11:30:11;95239.38;;;28.25;39.56
73383;BME280;61600;48.126;11.542;2023-05-22T11:32:38;95232.34;;;27.96;39.79
73383;BME280;61600;48.126;11.542;2023-05-22T11:35:05;95241.50;;;28.00;39.58
73383;BME280;61600;48.126;11.542;2023-05-22T11:37:37;95236.53;;;28.33;39.05
73383;BME280;61600;48.126;11.542;2023-05-22T11:40:04;95230.03;;;28.53;38.55
73383;BME280;61600;48.126;11.542;2023-05-22T11:42:31;95238.50;;;28.43;39.13
73383;BME280;61600;48.126;11.542;2023-05-22T11:44:57;95245.16;;;28.59;39.10
73383;BME280;61600;48.126;11.542;2023-05-22T11:47:26;95235.44;;;28.16;39.28
73383;BME280;61600;48.126;11.542;2023-05-22T11:49:55;95229.53;;;28.65;37.92
73383;BME280;61600;48.126;11.542;2023-05-22T11:52:22;95211.13;;;29.16;36.98
73383;BME280;61600;48.126;11.542;2023-05-22T11:54:50;95213.75;;;29.34;37.28
73383;BME280;61600;48.126;11.542;2023-05-22T11:57:17;95220.13;;;28.93;37.94
73383;BME280;61600;48.126;11.542;2023-05-22T11:59:46;95212.94;;;29.37;37.29
73383;BME280;61600;48.126;11.542;2023-05-22T12:02:12;95212.78;;;29.06;37.86
73383;BME280;61600;48.126;11.542;2023-05-22T12:04:39;95213.97;;;29.09;37.61
73383;BME280;61600;48.126;11.542;2023-05-22T12:07:06;95207.94;;;29.55;36.94
73383;BME280;61600;48.126;11.542;2023-05-22T12:09:32;95210.03;;;29.44;37.10
73383;BME280;61600;48.126;11.542;2023-05-22T12:11:59;95207.59;;;29.83;36.12
73383;BME280;61600;48.126;11.542;2023-05-22T12:14:26;95205.50;;;29.16;36.60
73383;BME280;61600;48.126;11.542;2023-05-22T12:16:53;95210.34;;;29.53;36.63
73383;BME280;61600;48.126;11.542;2023-05-22T12:19:24;95205.13;;;29.55;35.97
73383;BME280;61600;48.126;11.542;2023-05-22T12:21:50;95206.13;;;29.71;35.84
73383;BME280;61600;48.126;11.542;2023-05-22T12:24:15;95204.50;;;30.35;35.39
73383;BME280;61600;48.126;11.542;2023-05-22T12:26:54;95201.88;;;29.94;34.90
73383;BME280;61600;48.126;11.542;2023-05-22T12:29:21;95208.41;;;30.41;34.14
73383;BME280;61600;48.126;11.542;2023-05-22T12:31:48;95194.44;;;29.77;35.23
73383;BME280;61600;48.126;11.542;2023-05-22T12:34:14;95196.38;;;30.40;34.36
73383;BME280;61600;48.126;11.542;2023-05-22T12:36:42;95202.03;;;30.90;33.74
73383;BME280;61600;48.126;11.542;2023-05-22T12:39:18;95196.63;;;30.53;33.53
73383;BME280;61600;48.126;11.542;2023-05-22T12:41:44;95190.50;;;30.85;33.37
73383;BME280;61600;48.126;11.542;2023-05-22T12:44:15;95192.78;;;30.90;32.44
73383;BME280;61600;48.126;11.542;2023-05-22T12:46:41;95179.47;;;30.94;32.22
73383;BME280;61600;48.126;11.542;2023-05-22T12:49:07;95194.28;;;30.75;32.56
73383;BME280;61600;48.126;11.542;2023-05-22T12:51:34;95182.41;;;31.13;32.10
73383;BME280;61600;48.126;11.542;2023-05-22T12:54:00;95188.44;;;31.32;31.27
73383;BME280;61600;48.126;11.542;2023-05-22T12:56:27;95176.34;;;31.58;30.78
73383;BME280;61600;48.126;11.542;2023-05-22T12:58:54;95173.28;;;31.88;30.23
73383;BME280;61600;48.126;11.542;2023-05-22T13:01:27;95176.94;;;32.25;28.99
73383;BME280;61600;48.126;11.542;2023-05-22T13:03:53;95175.28;;;32.27;28.65
73383;BME280;61600;48.126;11.542;2023-05-22T13:06:19;95168.75;;;32.30;29.22
73383;BME280;61600;48.126;11.542;2023-05-22T13:08:51;95169.34;;;31.66;30.85
73383;BME280;61600;48.126;11.542;2023-05-22T13:11:17;95166.81;;;31.52;31.26
73383;BME280;61600;48.126;11.542;2023-05-22T13:13:47;95164.25;;;32.16;30.40
73383;BME280;61600;48.126;11.542;2023-05-22T13:16:13;95159.00;;;32.35;29.67
73383;BME280;61600;48.126;11.542;2023-05-22T13:18:39;95157.81;;;32.84;29.68
73383;BME280;61600;48.126;11.542;2023-05-22T13:21:05;95161.78;;;33.03;28.69